< < Back
Terminal Aerodrome Forecast


Current Version              Previous Versions:   1  2  3  4  5  6  7  8  9  

Terminal Aerodrome Forecast

830
FTUS42 KFFC 272320
TAFFTY
TAF
KFTY 272320Z 2800/2824 32007KT P6SM BKN040
     FM280600 32005KT P6SM SCT040
     FM281200 30005KT P6SM SKC
     FM282100 25006KT P6SM SKC=



Latest METAR

496
SAUS70 KWBC 280800 RRF
MTRFTY
METAR KFTY 280753Z 34004KT 10SM CLR M01/M06 A3038 RMK AO2 SLP292
T10061061


USA.gov is the U.S. government's official web portal to all federal, state and local government web resources and services.